sensor_id;sensor_type;location;lat;lon;timestamp;temperature;humidity
22430;DHT22;11382;48.086;11.632;2023-03-01T00:01:18;1.00;99.90
22430;DHT22;11382;48.086;11.632;2023-03-01T00:03:47;1.10;99.90
22430;DHT22;11382;48.086;11.632;2023-03-01T00:06:15;1.10;99.90
22430;DHT22;11382;48.086;11.632;2023-03-01T00:08:44;1.10;99.90
22430;DHT22;11382;48.086;11.632;2023-03-01T00:11:13;1.10;99.90
22430;DHT22;11382;48.086;11.632;2023-03-01T00:13:43;1.00;99.90
22430;DHT22;11382;48.086;11.632;2023-03-01T00:16:14;1.00;99.90
22430;DHT22;11382;48.086;11.632;2023-03-01T00:18:43;1.00;99.90
22430;DHT22;11382;48.086;11.632;2023-03-01T00:21:11;1.00;99.90
22430;DHT22;11382;48.086;11.632;2023-03-01T00:23:39;1.00;99.90
22430;DHT22;11382;48.086;11.632;2023-03-01T00:26:09;1.00;99.90
22430;DHT22;11382;48.086;11.632;2023-03-01T00:28:39;0.90;99.90
22430;DHT22;11382;48.086;11.632;2023-03-01T00:31:10;1.00;99.90
22430;DHT22;11382;48.086;11.632;2023-03-01T00:33:39;1.00;99.90
22430;DHT22;11382;48.086;11.632;2023-03-01T00:36:08;0.90;99.90
22430;DHT22;11382;48.086;11.632;2023-03-01T00:38:37;1.00;99.90
22430;DHT22;11382;48.086;11.632;2023-03-01T00:41:06;1.00;99.90
22430;DHT22;11382;48.086;11.632;2023-03-01T00:43:34;0.90;99.90
22430;DHT22;11382;48.086;11.632;2023-03-01T00:46:04;0.90;99.90
22430;DHT22;11382;48.086;11.632;2023-03-01T00:48:34;0.90;99.90
22430;DHT22;11382;48.086;11.632;2023-03-01T00:51:06;1.00;99.90
22430;DHT22;11382;48.086;11.632;2023-03-01T00:53:34;0.90;99.90
22430;DHT22;11382;48.086;11.632;2023-03-01T00:56:04;1.00;99.90
22430;DHT22;11382;48.086;11.632;2023-03-01T00:58:32;1.00;99.90
22430;DHT22;11382;48.086;11.632;2023-03-01T01:01:00;1.00;99.90
22430;DHT22;11382;48.086;11.632;2023-03-01T01:03:29;1.00;99.90
22430;DHT22;11382;48.086;11.632;2023-03-01T01:05:58;0.90;99.90
22430;DHT22;11382;48.086;11.632;2023-03-01T01:08:31;0.90;99.90
22430;DHT22;11382;48.086;11.632;2023-03-01T01:10:59;0.90;99.90
22430;DHT22;11382;48.086;11.632;2023-03-01T01:13:27;0.90;99.90
22430;DHT22;11382;48.086;11.632;2023-03-01T01:16:00;1.00;99.90
22430;DHT22;11382;48.086;11.632;2023-03-01T01:18:28;0.90;99.90
22430;DHT22;11382;48.086;11.632;2023-03-01T01:21:02;0.80;99.90
22430;DHT22;11382;48.086;11.632;2023-03-01T01:23:30;0.90;99.90
22430;DHT22;11382;48.086;11.632;2023-03-01T01:26:04;0.80;99.90
22430;DHT22;11382;48.086;11.632;2023-03-01T01:28:32;0.80;99.90
22430;DHT22;11382;48.086;11.632;2023-03-01T01:31:00;0.80;99.90
22430;DHT22;11382;48.086;11.632;2023-03-01T01:33:28;0.80;99.90
22430;DHT22;11382;48.086;11.632;2023-03-01T01:35:57;0.80;99.90
22430;DHT22;11382;48.086;11.632;2023-03-01T01:38:25;0.80;99.90
22430;DHT22;11382;48.086;11.632;2023-03-01T01:40:53;0.90;99.90
22430;DHT22;11382;48.086;11.632;2023-03-01T01:43:24;0.80;99.90
22430;DHT22;11382;48.086;11.632;2023-03-01T01:45:55;0.80;99.90
22430;DHT22;11382;48.086;11.632;2023-03-01T01:48:27;0.70;99.90
22430;DHT22;11382;48.086;11.632;2023-03-01T01:51:11;0.80;99.90
22430;DHT22;11382;48.086;11.632;2023-03-01T01:53:41;0.80;99.90
22430;DHT22;11382;48.086;11.632;2023-03-01T01:56:11;0.70;99.90
22430;DHT22;11382;48.086;11.632;2023-03-01T01:58:41;0.80;99.90
22430;DHT22;11382;48.086;11.632;2023-03-01T02:01:10;0.80;99.90
22430;DHT22;11382;48.086;11.632;2023-03-01T02:03:39;0.80;99.90
22430;DHT22;11382;48.086;11.632;2023-03-01T02:06:18;0.80;99.90
22430;DHT22;11382;48.086;11.632;2023-03-01T02:08:48;0.80;99.90
22430;DHT22;11382;48.086;11.632;2023-03-01T02:11:17;0.70;99.90
22430;DHT22;11382;48.086;11.632;2023-03-01T02:13:48;0.70;99.90
22430;DHT22;11382;48.086;11.632;2023-03-01T02:16:16;0.80;99.90
22430;DHT22;11382;48.086;11.632;2023-03-01T02:18:45;0.90;99.90
22430;DHT22;11382;48.086;11.632;2023-03-01T02:21:25;0.80;99.90
22430;DHT22;11382;48.086;11.632;2023-03-01T02:23:54;0.80;99.90
22430;DHT22;11382;48.086;11.632;2023-03-01T02:26:30;0.80;99.90
22430;DHT22;11382;48.086;11.632;2023-03-01T02:29:02;0.70;99.90
22430;DHT22;11382;48.086;11.632;2023-03-01T02:31:32;0.70;99.90
22430;DHT22;11382;48.086;11.632;2023-03-01T02:34:12;0.70;99.90
22430;DHT22;11382;48.086;11.632;2023-03-01T02:36:44;0.70;99.90
22430;DHT22;11382;48.086;11.632;2023-03-01T02:39:18;0.70;99.90
22430;DHT22;11382;48.086;11.632;2023-03-01T02:41:51;0.70;99.90
22430;DHT22;11382;48.086;11.632;2023-03-01T02:44:21;0.70;99.90
22430;DHT22;11382;48.086;11.632;2023-03-01T02:46:51;0.80;99.90
22430;DHT22;11382;48.086;11.632;2023-03-01T02:49:24;0.80;99.90
22430;DHT22;11382;48.086;11.632;2023-03-01T02:52:07;0.70;99.90
22430;DHT22;11382;48.086;11.632;2023-03-01T02:54:40;0.70;99.90
22430;DHT22;11382;48.086;11.632;2023-03-01T02:57:09;0.60;99.90
22430;DHT22;11382;48.086;11.632;2023-03-01T02:59:39;0.50;99.90
22430;DHT22;11382;48.086;11.632;2023-03-01T03:02:19;0.60;99.90
22430;DHT22;11382;48.086;11.632;2023-03-01T03:05:09;0.60;99.90
22430;DHT22;11382;48.086;11.632;2023-03-01T03:07:39;0.60;99.90
22430;DHT22;11382;48.086;11.632;2023-03-01T03:10:10;0.50;99.90
22430;DHT22;11382;48.086;11.632;2023-03-01T03:12:39;0.60;99.90
22430;DHT22;11382;48.086;11.632;2023-03-01T03:15:10;0.60;99.90
22430;DHT22;11382;48.086;11.632;2023-03-01T03:17:41;0.60;99.90
22430;DHT22;11382;48.086;11.632;2023-03-01T03:20:13;0.60;99.90
22430;DHT22;11382;48.086;11.632;2023-03-01T03:22:46;0.50;99.90
22430;DHT22;11382;48.086;11.632;2023-03-01T03:25:15;0.50;99.90
22430;DHT22;11382;48.086;11.632;2023-03-01T03:27:44;0.40;99.90
22430;DHT22;11382;48.086;11.632;2023-03-01T03:30:18;0.40;99.90
22430;DHT22;11382;48.086;11.632;2023-03-01T03:32:48;0.40;99.90
22430;DHT22;11382;48.086;11.632;2023-03-01T03:35:20;0.50;99.90
22430;DHT22;11382;48.086;11.632;2023-03-01T03:37:49;0.50;99.90
22430;DHT22;11382;48.086;11.632;2023-03-01T03:40:34;0.50;99.90
22430;DHT22;11382;48.086;11.632;2023-03-01T03:43:02;0.50;99.90
22430;DHT22;11382;48.086;11.632;2023-03-01T03:45:32;0.40;99.90
22430;DHT22;11382;48.086;11.632;2023-03-01T03:48:02;0.50;99.90
22430;DHT22;11382;48.086;11.632;2023-03-01T03:50:31;0.50;99.90
22430;DHT22;11382;48.086;11.632;2023-03-01T03:53:01;0.50;99.90
22430;DHT22;11382;48.086;11.632;2023-03-01T03:55:29;0.40;99.90
22430;DHT22;11382;48.086;11.632;2023-03-01T03:57:58;0.30;99.90
22430;DHT22;11382;48.086;11.632;2023-03-01T04:00:29;0.30;99.90
22430;DHT22;11382;48.086;11.632;2023-03-01T04:02:58;0.20;99.90
22430;DHT22;11382;48.086;11.632;2023-03-01T04:05:27;0.30;99.90
22430;DHT22;11382;48.086;11.632;2023-03-01T04:07:55;0.30;99.90
22430;DHT22;11382;48.086;11.632;2023-03-01T04:10:29;0.30;99.90
22430;DHT22;11382;48.086;11.632;2023-03-01T04:12:58;0.20;99.90
22430;DHT22;11382;48.086;11.632;2023-03-01T04:15:26;0.10;99.90
22430;DHT22;11382;48.086;11.632;2023-03-01T04:17:55;0.10;99.90
22430;DHT22;11382;48.086;11.632;2023-03-01T04:20:26;0.10;99.90
22430;DHT22;11382;48.086;11.632;2023-03-01T04:22:58;0.10;99.90
22430;DHT22;11382;48.086;11.632;2023-03-01T04:25:26;0.10;99.90
22430;DHT22;11382;48.086;11.632;2023-03-01T04:27:57;0.20;99.90
22430;DHT22;11382;48.086;11.632;2023-03-01T04:30:25;0.10;99.90
22430;DHT22;11382;48.086;11.632;2023-03-01T04:32:52;0.20;99.90
22430;DHT22;11382;48.086;11.632;2023-03-01T04:35:20;0.10;99.90
22430;DHT22;11382;48.086;11.632;2023-03-01T04:37:50;0.10;99.90
22430;DHT22;11382;48.086;11.632;2023-03-01T04:40:18;0.10;99.90
22430;DHT22;11382;48.086;11.632;2023-03-01T04:42:47;0.00;99.90
22430;DHT22;11382;48.086;11.632;2023-03-01T04:45:15;0.00;99.90
22430;DHT22;11382;48.086;11.632;2023-03-01T04:47:45;0.00;99.90
22430;DHT22;11382;48.086;11.632;2023-03-01T04:50:14;0.00;99.90
22430;DHT22;11382;48.086;11.632;2023-03-01T04:52:42;0.00;99.90
22430;DHT22;11382;48.086;11.632;2023-03-01T04:55:12;0.00;99.90
22430;DHT22;11382;48.086;11.632;2023-03-01T04:57:41;0.00;99.90
22430;DHT22;11382;48.086;11.632;2023-03-01T05:00:11;-0.10;99.90
22430;DHT22;11382;48.086;11.632;2023-03-01T05:02:48;-0.10;99.90
22430;DHT22;11382;48.086;11.632;2023-03-01T05:05:21;-0.20;99.90
22430;DHT22;11382;48.086;11.632;2023-03-01T05:07:53;-0.10;99.90
22430;DHT22;11382;48.086;11.632;2023-03-01T05:10:23;-0.10;99.90
22430;DHT22;11382;48.086;11.632;2023-03-01T05:12:52;-0.10;99.90
22430;DHT22;11382;48.086;11.632;2023-03-01T05:15:20;-0.10;99.90
22430;DHT22;11382;48.086;11.632;2023-03-01T05:17:52;-0.10;99.90
22430;DHT22;11382;48.086;11.632;2023-03-01T05:20:21;-0.20;99.90
22430;DHT22;11382;48.086;11.632;2023-03-01T05:22:51;-0.20;99.90
22430;DHT22;11382;48.086;11.632;2023-03-01T05:25:19;-0.20;99.90
22430;DHT22;11382;48.086;11.632;2023-03-01T05:27:49;-0.30;99.90
22430;DHT22;11382;48.086;11.632;2023-03-01T05:30:18;-0.30;99.90
22430;DHT22;11382;48.086;11.632;2023-03-01T05:32:48;-0.40;99.90
22430;DHT22;11382;48.086;11.632;2023-03-01T05:35:17;-0.40;99.90
22430;DHT22;11382;48.086;11.632;2023-03-01T05:37:47;-0.40;99.90
22430;DHT22;11382;48.086;11.632;2023-03-01T05:40:17;-0.40;99.90
22430;DHT22;11382;48.086;11.632;2023-03-01T05:42:46;-0.40;99.90
22430;DHT22;11382;48.086;11.632;2023-03-01T05:45:17;-0.40;99.90
22430;DHT22;11382;48.086;11.632;2023-03-01T05:47:46;-0.50;99.90
22430;DHT22;11382;48.086;11.632;2023-03-01T05:50:15;-0.50;99.90
22430;DHT22;11382;48.086;11.632;2023-03-01T05:52:46;-0.60;99.90
22430;DHT22;11382;48.086;11.632;2023-03-01T05:55:15;-0.60;99.90
22430;DHT22;11382;48.086;11.632;2023-03-01T05:57:43;-0.50;99.90
22430;DHT22;11382;48.086;11.632;2023-03-01T06:00:13;-0.50;99.90
22430;DHT22;11382;48.086;11.632;2023-03-01T06:02:43;-0.60;99.90
22430;DHT22;11382;48.086;11.632;2023-03-01T06:05:14;-0.60;99.90
22430;DHT22;11382;48.086;11.632;2023-03-01T06:07:42;-0.50;99.90
22430;DHT22;11382;48.086;11.632;2023-03-01T06:10:11;-0.60;99.90
22430;DHT22;11382;48.086;11.632;2023-03-01T06:12:41;-0.60;99.90
22430;DHT22;11382;48.086;11.632;2023-03-01T06:15:12;-0.50;99.90
22430;DHT22;11382;48.086;11.632;2023-03-01T06:17:44;-0.60;99.90
22430;DHT22;11382;48.086;11.632;2023-03-01T06:20:14;-0.60;99.90
22430;DHT22;11382;48.086;11.632;2023-03-01T06:22:43;-0.60;99.90
22430;DHT22;11382;48.086;11.632;2023-03-01T06:25:12;-0.50;99.90
22430;DHT22;11382;48.086;11.632;2023-03-01T06:27:41;-0.50;99.90
22430;DHT22;11382;48.086;11.632;2023-03-01T06:30:11;-0.50;99.90
22430;DHT22;11382;48.086;11.632;2023-03-01T06:32:40;-0.50;99.90
22430;DHT22;11382;48.086;11.632;2023-03-01T06:35:12;-0.50;99.90
22430;DHT22;11382;48.086;11.632;2023-03-01T06:37:41;-0.50;99.90
22430;DHT22;11382;48.086;11.632;2023-03-01T06:40:10;-0.60;99.90
22430;DHT22;11382;48.086;11.632;2023-03-01T06:42:42;-0.60;99.90
22430;DHT22;11382;48.086;11.632;2023-03-01T06:45:10;-0.50;99.90
22430;DHT22;11382;48.086;11.632;2023-03-01T06:47:38;-0.40;99.90
22430;DHT22;11382;48.086;11.632;2023-03-01T06:50:07;-0.60;99.90
22430;DHT22;11382;48.086;11.632;2023-03-01T06:52:37;-0.50;99.90
22430;DHT22;11382;48.086;11.632;2023-03-01T06:55:06;-0.50;99.90
22430;DHT22;11382;48.086;11.632;2023-03-01T06:57:34;-0.50;99.90
22430;DHT22;11382;48.086;11.632;2023-03-01T07:00:03;-0.50;99.90
22430;DHT22;11382;48.086;11.632;2023-03-01T07:02:31;-0.50;99.90
22430;DHT22;11382;48.086;11.632;2023-03-01T07:04:59;-0.50;99.90
22430;DHT22;11382;48.086;11.632;2023-03-01T07:07:27;-0.40;99.90
22430;DHT22;11382;48.086;11.632;2023-03-01T07:09:56;-0.40;99.90
22430;DHT22;11382;48.086;11.632;2023-03-01T07:12:24;-0.40;99.90
22430;DHT22;11382;48.086;11.632;2023-03-01T07:14:52;-0.30;99.90
22430;DHT22;11382;48.086;11.632;2023-03-01T07:17:20;-0.30;99.90
22430;DHT22;11382;48.086;11.632;2023-03-01T07:19:48;-0.40;99.90
22430;DHT22;11382;48.086;11.632;2023-03-01T07:22:16;-0.40;99.90
22430;DHT22;11382;48.086;11.632;2023-03-01T07:24:44;-0.30;99.90
22430;DHT22;11382;48.086;11.632;2023-03-01T07:27:13;-0.30;99.90
22430;DHT22;11382;48.086;11.632;2023-03-01T07:29:41;-0.30;99.90
22430;DHT22;11382;48.086;11.632;2023-03-01T07:32:09;-0.30;99.90
22430;DHT22;11382;48.086;11.632;2023-03-01T07:34:38;-0.30;99.90
22430;DHT22;11382;48.086;11.632;2023-03-01T07:37:06;-0.30;99.90
22430;DHT22;11382;48.086;11.632;2023-03-01T07:39:34;-0.30;99.90
22430;DHT22;11382;48.086;11.632;2023-03-01T07:42:02;-0.40;99.90
22430;DHT22;11382;48.086;11.632;2023-03-01T07:44:31;-0.30;99.90
22430;DHT22;11382;48.086;11.632;2023-03-01T07:46:59;-0.30;99.90
22430;DHT22;11382;48.086;11.632;2023-03-01T07:49:27;-0.40;99.90
22430;DHT22;11382;48.086;11.632;2023-03-01T07:51:54;-0.40;99.90
22430;DHT22;11382;48.086;11.632;2023-03-01T07:54:22;-0.30;99.90
22430;DHT22;11382;48.086;11.632;2023-03-01T07:56:51;-0.30;99.90
22430;DHT22;11382;48.086;11.632;2023-03-01T07:59:19;-0.30;99.90
22430;DHT22;11382;48.086;11.632;2023-03-01T08:01:48;-0.20;99.90
22430;DHT22;11382;48.086;11.632;2023-03-01T08:04:16;-0.20;99.90
22430;DHT22;11382;48.086;11.632;2023-03-01T08:06:44;-0.20;99.90
22430;DHT22;11382;48.086;11.632;2023-03-01T08:09:12;-0.10;99.90
22430;DHT22;11382;48.086;11.632;2023-03-01T08:11:41;-0.10;99.90
22430;DHT22;11382;48.086;11.632;2023-03-01T08:14:09;-0.10;99.90
22430;DHT22;11382;48.086;11.632;2023-03-01T08:16:37;0.00;99.90
22430;DHT22;11382;48.086;11.632;2023-03-01T08:19:07;0.00;99.90
22430;DHT22;11382;48.086;11.632;2023-03-01T08:21:35;0.00;99.90
22430;DHT22;11382;48.086;11.632;2023-03-01T08:24:04;-0.10;99.90
22430;DHT22;11382;48.086;11.632;2023-03-01T08:26:33;0.10;99.90
22430;DHT22;11382;48.086;11.632;2023-03-01T08:29:01;0.20;99.90
22430;DHT22;11382;48.086;11.632;2023-03-01T08:31:30;0.10;99.90
22430;DHT22;11382;48.086;11.632;2023-03-01T08:34:00;0.10;99.90
22430;DHT22;11382;48.086;11.632;2023-03-01T08:36:31;0.10;99.90
22430;DHT22;11382;48.086;11.632;2023-03-01T08:39:00;0.10;99.90
22430;DHT22;11382;48.086;11.632;2023-03-01T08:41:28;0.20;99.90
22430;DHT22;11382;48.086;11.632;2023-03-01T08:43:56;0.20;99.90
22430;DHT22;11382;48.086;11.632;2023-03-01T08:46:26;0.30;99.90
22430;DHT22;11382;48.086;11.632;2023-03-01T08:48:55;0.20;99.90
22430;DHT22;11382;48.086;11.632;2023-03-01T08:51:25;0.20;99.90
22430;DHT22;11382;48.086;11.632;2023-03-01T08:53:55;0.20;99.90
22430;DHT22;11382;48.086;11.632;2023-03-01T08:56:23;0.30;99.90
22430;DHT22;11382;48.086;11.632;2023-03-01T08:58:50;0.40;99.90
22430;DHT22;11382;48.086;11.632;2023-03-01T09:01:19;0.50;99.90
22430;DHT22;11382;48.086;11.632;2023-03-01T09:03:47;0.60;99.90
22430;DHT22;11382;48.086;11.632;2023-03-01T09:06:15;0.70;99.90
22430;DHT22;11382;48.086;11.632;2023-03-01T09:08:45;0.60;99.90
22430;DHT22;11382;48.086;11.632;2023-03-01T09:11:18;0.60;99.90
22430;DHT22;11382;48.086;11.632;2023-03-01T09:13:48;0.70;99.90
22430;DHT22;11382;48.086;11.632;2023-03-01T09:16:17;0.90;99.90
22430;DHT22;11382;48.086;11.632;2023-03-01T09:18:49;0.90;99.90
22430;DHT22;11382;48.086;11.632;2023-03-01T09:21:20;0.80;99.90
22430;DHT22;11382;48.086;11.632;2023-03-01T09:24:06;0.90;99.90
22430;DHT22;11382;48.086;11.632;2023-03-01T09:26:35;0.90;99.90
22430;DHT22;11382;48.086;11.632;2023-03-01T09:29:03;1.00;99.90
22430;DHT22;11382;48.086;11.632;2023-03-01T09:31:31;0.90;99.90
22430;DHT22;11382;48.086;11.632;2023-03-01T09:33:59;1.00;99.90
22430;DHT22;11382;48.086;11.632;2023-03-01T09:36:26;1.10;99.90
22430;DHT22;11382;48.086;11.632;2023-03-01T09:38:56;1.00;99.90
22430;DHT22;11382;48.086;11.632;2023-03-01T09:41:42;0.90;99.90
22430;DHT22;11382;48.086;11.632;2023-03-01T09:44:25;1.00;99.90
22430;DHT22;11382;48.086;11.632;2023-03-01T09:46:53;0.90;99.90
22430;DHT22;11382;48.086;11.632;2023-03-01T09:49:24;1.10;99.90
22430;DHT22;11382;48.086;11.632;2023-03-01T09:51:58;1.10;99.90
22430;DHT22;11382;48.086;11.632;2023-03-01T09:54:27;1.10;99.90
22430;DHT22;11382;48.086;11.632;2023-03-01T09:57:11;1.00;99.90
22430;DHT22;11382;48.086;11.632;2023-03-01T10:02:45;1.20;99.90
22430;DHT22;11382;48.086;11.632;2023-03-01T10:05:25;1.10;99.90
22430;DHT22;11382;48.086;11.632;2023-03-01T10:08:02;1.30;99.90
22430;DHT22;11382;48.086;11.632;2023-03-01T10:10:35;1.50;99.90
22430;DHT22;11382;48.086;11.632;2023-03-01T10:13:13;1.50;99.90
22430;DHT22;11382;48.086;11.632;2023-03-01T10:15:45;1.40;99.90
22430;DHT22;11382;48.086;11.632;2023-03-01T10:18:19;1.20;99.90
22430;DHT22;11382;48.086;11.632;2023-03-01T10:20:52;1.20;99.90
22430;DHT22;11382;48.086;11.632;2023-03-01T10:23:22;1.20;99.90
22430;DHT22;11382;48.086;11.632;2023-03-01T10:26:08;1.10;99.90
22430;DHT22;11382;48.086;11.632;2023-03-01T10:28:48;1.20;99.90
22430;DHT22;11382;48.086;11.632;2023-03-01T10:31:22;1.30;99.90
22430;DHT22;11382;48.086;11.632;2023-03-01T10:33:55;1.50;99.90
22430;DHT22;11382;48.086;11.632;2023-03-01T10:36:25;1.70;99.90
22430;DHT22;11382;48.086;11.632;2023-03-01T10:38:55;1.70;99.90
22430;DHT22;11382;48.086;11.632;2023-03-01T10:41:25;1.60;99.90
22430;DHT22;11382;48.086;11.632;2023-03-01T10:43:56;1.60;99.90
22430;DHT22;11382;48.086;11.632;2023-03-01T10:46:27;1.80;99.90
22430;DHT22;11382;48.086;11.632;2023-03-01T10:49:14;1.80;99.90
22430;DHT22;11382;48.086;11.632;2023-03-01T10:51:44;2.40;99.90
22430;DHT22;11382;48.086;11.632;2023-03-01T10:54:17;3.00;99.90
22430;DHT22;11382;48.086;11.632;2023-03-01T10:56:48;3.70;99.90
22430;DHT22;11382;48.086;11.632;2023-03-01T10:59:25;3.90;99.90
22430;DHT22;11382;48.086;11.632;2023-03-01T11:02:15;3.90;99.90
22430;DHT22;11382;48.086;11.632;2023-03-01T11:04:59;3.30;99.90
22430;DHT22;11382;48.086;11.632;2023-03-01T11:07:29;3.50;99.90
22430;DHT22;11382;48.086;11.632;2023-03-01T11:09:57;4.10;99.90
22430;DHT22;11382;48.086;11.632;2023-03-01T11:12:25;4.10;99.90
22430;DHT22;11382;48.086;11.632;2023-03-01T11:14:57;4.40;99.90
22430;DHT22;11382;48.086;11.632;2023-03-01T11:17:28;4.80;99.90
22430;DHT22;11382;48.086;11.632;2023-03-01T11:20:09;5.50;99.90
22430;DHT22;11382;48.086;11.632;2023-03-01T11:22:47;5.40;99.90
22430;DHT22;11382;48.086;11.632;2023-03-01T11:25:18;5.40;99.90
22430;DHT22;11382;48.086;11.632;2023-03-01T11:27:47;6.30;99.90
22430;DHT22;11382;48.086;11.632;2023-03-01T11:30:21;6.30;99.90
22430;DHT22;11382;48.086;11.632;2023-03-01T11:32:59;6.00;99.90
22430;DHT22;11382;48.086;11.632;2023-03-01T11:35:32;6.00;99.90
22430;DHT22;11382;48.086;11.632;2023-03-01T11:38:15;5.90;99.90
22430;DHT22;11382;48.086;11.632;2023-03-01T11:40:46;6.20;99.90
22430;DHT22;11382;48.086;11.632;2023-03-01T11:43:25;6.10;99.90
22430;DHT22;11382;48.086;11.632;2023-03-01T11:46:17;6.60;99.90
22430;DHT22;11382;48.086;11.632;2023-03-01T11:48:58;6.60;99.90
22430;DHT22;11382;48.086;11.632;2023-03-01T11:51:41;6.80;99.90
22430;DHT22;11382;48.086;11.632;2023-03-01T11:54:25;8.00;99.90
22430;DHT22;11382;48.086;11.632;2023-03-01T11:57:00;8.60;99.90
22430;DHT22;11382;48.086;11.632;2023-03-01T12:02:40;7.30;99.90
22430;DHT22;11382;48.086;11.632;2023-03-01T12:05:43;7.80;99.90
22430;DHT22;11382;48.086;11.632;2023-03-01T12:08:17;7.80;99.90
22430;DHT22;11382;48.086;11.632;2023-03-01T12:10:55;8.10;99.90
22430;DHT22;11382;48.086;11.632;2023-03-01T12:13:44;7.50;99.90
22430;DHT22;11382;48.086;11.632;2023-03-01T12:16:23;7.20;99.90
22430;DHT22;11382;48.086;11.632;2023-03-01T12:19:22;6.30;99.90
22430;DHT22;11382;48.086;11.632;2023-03-01T12:22:07;5.90;99.90
22430;DHT22;11382;48.086;11.632;2023-03-01T12:24:54;5.80;99.90
22430;DHT22;11382;48.086;11.632;2023-03-01T12:27:45;5.20;99.90
22430;DHT22;11382;48.086;11.632;2023-03-01T12:30:26;5.80;99.90
22430;DHT22;11382;48.086;11.632;2023-03-01T12:33:17;6.10;99.90
22430;DHT22;11382;48.086;11.632;2023-03-01T12:36:09;6.00;99.90
22430;DHT22;11382;48.086;11.632;2023-03-01T12:38:42;5.70;99.90
22430;DHT22;11382;48.086;11.632;2023-03-01T12:41:34;6.10;99.90
22430;DHT22;11382;48.086;11.632;2023-03-01T12:44:15;6.40;99.90
22430;DHT22;11382;48.086;11.632;2023-03-01T12:47:04;5.90;99.90
22430;DHT22;11382;48.086;11.632;2023-03-01T12:49:37;6.10;99.90
22430;DHT22;11382;48.086;11.632;2023-03-01T12:52:14;6.50;99.90
22430;DHT22;11382;48.086;11.632;2023-03-01T12:54:43;6.60;99.90
22430;DHT22;11382;48.086;11.632;2023-03-01T12:57:15;6.60;99.90
22430;DHT22;11382;48.086;11.632;2023-03-01T12:59:48;6.60;99.90
22430;DHT22;11382;48.086;11.632;2023-03-01T13:02:22;6.70;99.90
22430;DHT22;11382;48.086;11.632;2023-03-01T13:05:00;6.40;99.90
22430;DHT22;11382;48.086;11.632;2023-03-01T13:07:35;6.40;99.90
22430;DHT22;11382;48.086;11.632;2023-03-01T13:10:20;6.10;99.90
22430;DHT22;11382;48.086;11.632;2023-03-01T13:13:01;6.20;99.90
22430;DHT22;11382;48.086;11.632;2023-03-01T13:15:39;6.60;99.90
22430;DHT22;11382;48.086;11.632;2023-03-01T13:18:29;6.10;99.90
22430;DHT22;11382;48.086;11.632;2023-03-01T13:20:59;6.00;99.90
22430;DHT22;11382;48.086;11.632;2023-03-01T13:23:31;6.20;99.90
22430;DHT22;11382;48.086;11.632;2023-03-01T13:28:52;6.00;99.90
22430;DHT22;11382;48.086;11.632;2023-03-01T13:34:48;5.90;99.90
22430;DHT22;11382;48.086;11.632;2023-03-01T13:37:27;5.90;99.90
22430;DHT22;11382;48.086;11.632;2023-03-01T13:40:01;5.90;99.90
22430;DHT22;11382;48.086;11.632;2023-03-01T13:45:34;6.00;99.90
22430;DHT22;11382;48.086;11.632;2023-03-01T13:48:09;5.80;99.90
22430;DHT22;11382;48.086;11.632;2023-03-01T13:50:45;6.10;99.90
22430;DHT22;11382;48.086;11.632;2023-03-01T13:53:18;6.20;99.90
22430;DHT22;11382;48.086;11.632;2023-03-01T13:55:51;6.30;99.90
22430;DHT22;11382;48.086;11.632;2023-03-01T13:58:23;6.50;99.90
22430;DHT22;11382;48.086;11.632;2023-03-01T14:00:59;6.30;99.90
22430;DHT22;11382;48.086;11.632;2023-03-01T14:03:29;6.10;99.90
22430;DHT22;11382;48.086;11.632;2023-03-01T14:06:02;6.10;99.90
22430;DHT22;11382;48.086;11.632;2023-03-01T14:08:42;6.30;99.90
22430;DHT22;11382;48.086;11.632;2023-03-01T14:11:33;6.20;99.90
22430;DHT22;11382;48.086;11.632;2023-03-01T14:14:43;6.20;99.90
22430;DHT22;11382;48.086;11.632;2023-03-01T14:17:55;6.40;99.90
22430;DHT22;11382;48.086;11.632;2023-03-01T14:20:28;6.50;99.90
22430;DHT22;11382;48.086;11.632;2023-03-01T14:22:59;6.50;99.90
22430;DHT22;11382;48.086;11.632;2023-03-01T14:25:30;6.20;99.90
22430;DHT22;11382;48.086;11.632;2023-03-01T14:28:03;6.40;99.90
22430;DHT22;11382;48.086;11.632;2023-03-01T14:30:36;6.60;99.90
22430;DHT22;11382;48.086;11.632;2023-03-01T14:33:16;6.30;99.90
22430;DHT22;11382;48.086;11.632;2023-03-01T14:35:53;6.20;99.90
22430;DHT22;11382;48.086;11.632;2023-03-01T14:38:22;6.40;99.90
22430;DHT22;11382;48.086;11.632;2023-03-01T14:40:57;6.10;99.90
22430;DHT22;11382;48.086;11.632;2023-03-01T14:43:27;6.10;99.90
22430;DHT22;11382;48.086;11.632;2023-03-01T14:45:57;6.00;99.90
22430;DHT22;11382;48.086;11.632;2023-03-01T14:48:26;6.20;99.90
22430;DHT22;11382;48.086;11.632;2023-03-01T14:50:54;6.10;99.90
22430;DHT22;11382;48.086;11.632;2023-03-01T14:53:25;5.90;99.90
22430;DHT22;11382;48.086;11.632;2023-03-01T14:55:55;6.00;99.90
22430;DHT22;11382;48.086;11.632;2023-03-01T14:58:25;6.10;99.90
22430;DHT22;11382;48.086;11.632;2023-03-01T15:00:56;6.20;99.90
22430;DHT22;11382;48.086;11.632;2023-03-01T15:03:31;6.00;99.90
22430;DHT22;11382;48.086;11.632;2023-03-01T15:06:01;6.10;99.90
22430;DHT22;11382;48.086;11.632;2023-03-01T15:08:29;6.10;99.90
22430;DHT22;11382;48.086;11.632;2023-03-01T15:11:03;6.00;99.90
22430;DHT22;11382;48.086;11.632;2023-03-01T15:13:35;6.00;99.90
22430;DHT22;11382;48.086;11.632;2023-03-01T15:16:08;6.10;99.90
22430;DHT22;11382;48.086;11.632;2023-03-01T15:18:36;6.00;99.90
22430;DHT22;11382;48.086;11.632;2023-03-01T15:21:07;6.10;99.90
22430;DHT22;11382;48.086;11.632;2023-03-01T15:23:37;6.00;99.90
22430;DHT22;11382;48.086;11.632;2023-03-01T15:26:06;5.90;99.90
22430;DHT22;11382;48.086;11.632;2023-03-01T15:28:40;6.00;99.90
22430;DHT22;11382;48.086;11.632;2023-03-01T15:31:20;6.10;99.90
22430;DHT22;11382;48.086;11.632;2023-03-01T15:33:49;6.20;99.90
22430;DHT22;11382;48.086;11.632;2023-03-01T15:36:33;6.20;99.90
22430;DHT22;11382;48.086;11.632;2023-03-01T15:39:04;6.10;99.90
22430;DHT22;11382;48.086;11.632;2023-03-01T15:41:45;6.00;99.90
22430;DHT22;11382;48.086;11.632;2023-03-01T15:44:17;6.00;99.90
22430;DHT22;11382;48.086;11.632;2023-03-01T15:46:48;6.00;99.90
22430;DHT22;11382;48.086;11.632;2023-03-01T15:49:34;6.00;99.90
22430;DHT22;11382;48.086;11.632;2023-03-01T15:52:23;6.00;99.90
22430;DHT22;11382;48.086;11.632;2023-03-01T15:54:57;6.00;99.90
22430;DHT22;11382;48.086;11.632;2023-03-01T15:57:25;6.00;99.90
22430;DHT22;11382;48.086;11.632;2023-03-01T15:59:53;6.10;99.90
22430;DHT22;11382;48.086;11.632;2023-03-01T16:02:23;5.90;99.90
22430;DHT22;11382;48.086;11.632;2023-03-01T16:04:52;5.80;99.90
22430;DHT22;11382;48.086;11.632;2023-03-01T16:07:23;5.90;99.90
22430;DHT22;11382;48.086;11.632;2023-03-01T16:09:53;5.90;99.90
22430;DHT22;11382;48.086;11.632;2023-03-01T16:12:21;5.90;99.90
22430;DHT22;11382;48.086;11.632;2023-03-01T16:14:51;5.90;99.90